Time;durP1;ratioP1;P1;durP2;ratioP2;P2;SDS_P1;SDS_P2;PMS_P1;PMS_P2;Temp;Humidity;BMP_temperature;BMP_pressure;BME280_temperature;BME280_humidity;BME280_pressure;Samples;Min_cycle;Max_cycle;Signal;HPM_P1;HPM_P2
2023/04/16 00:01:39;;;;;;;30.48;15.13;;;7.70;99.90;;;;;;4978143;28;20510;-79
2023/04/16 00:04:05;;;;;;;29.80;13.85;;;7.60;99.90;;;;;;4978400;28;20046;-79
2023/04/16 00:06:30;;;;;;;27.08;14.52;;;7.50;99.90;;;;;;4995511;28;20396;-80
2023/04/16 00:08:57;;;;;;;27.77;15.20;;;7.40;99.90;;;;;;4978266;28;20492;-81
2023/04/16 00:11:23;;;;;;;26.25;14.38;;;7.60;99.90;;;;;;4978824;28;20092;-80
2023/04/16 00:13:48;;;;;;;32.50;14.98;;;7.40;99.90;;;;;;4946461;28;20058;-79
2023/04/16 00:16:14;;;;;;;31.10;15.23;;;7.40;99.90;;;;;;4962046;28;20480;-79
2023/04/16 00:18:40;;;;;;;29.30;14.52;;;7.40;99.90;;;;;;4978340;28;20042;-78
2023/04/16 00:21:06;;;;;;;31.38;14.30;;;7.40;99.90;;;;;;4977878;28;20395;-79
2023/04/16 00:23:32;;;;;;;30.63;14.13;;;7.40;99.90;;;;;;4995176;28;20061;-79
2023/04/16 00:25:58;;;;;;;24.75;14.20;;;7.30;99.90;;;;;;4961726;28;20046;-77
2023/04/16 00:28:26;;;;;;;26.30;14.07;;;7.30;99.90;;;;;;4995358;28;20488;-78
2023/04/16 00:30:52;;;;;;;28.33;14.13;;;7.30;99.90;;;;;;4995041;28;20054;-79
2023/04/16 00:33:18;;;;;;;25.95;13.70;;;7.30;99.90;;;;;;4995204;28;20046;-79
2023/04/16 00:35:47;;;;;;;30.52;14.95;;;7.20;99.90;;;;;;4977753;28;20440;-78
2023/04/16 00:38:13;;;;;;;30.98;15.05;;;7.20;99.90;;;;;;4946530;28;20389;-80
2023/04/16 00:40:39;;;;;;;24.88;14.10;;;7.20;99.90;;;;;;4994852;28;20496;-80
2023/04/16 00:43:04;;;;;;;30.58;15.35;;;7.20;99.90;;;;;;4994758;28;20056;-80
2023/04/16 00:45:30;;;;;;;34.15;16.20;;;7.10;99.90;;;;;;4961669;28;20057;-79
2023/04/16 00:47:57;;;;;;;39.60;15.35;;;7.50;99.90;;;;;;4961135;28;20101;-80
2023/04/16 00:50:23;;;;;;;50.80;15.38;;;7.20;99.90;;;;;;4977568;28;20385;-79
2023/04/16 00:52:49;;;;;;;42.47;15.85;;;7.10;99.90;;;;;;4978245;28;20042;-77
2023/04/16 00:55:17;;;;;;;40.03;16.73;;;7.10;99.90;;;;;;4978170;28;20085;-79
2023/04/16 00:57:43;;;;;;;44.17;15.00;;;7.10;99.90;;;;;;4977740;28;20050;-79
2023/04/16 01:00:10;;;;;;;33.80;15.60;;;7.10;99.90;;;;;;4995417;28;20448;-80
2023/04/16 01:02:36;;;;;;;54.08;17.02;;;7.00;99.90;;;;;;4994517;28;20046;-81
2023/04/16 01:05:03;;;;;;;48.53;17.30;;;7.10;99.90;;;;;;4962167;28;20133;-80
2023/04/16 01:07:29;;;;;;;45.00;16.13;;;7.00;99.90;;;;;;4978148;28;20062;-79
2023/04/16 01:09:55;;;;;;;39.30;17.45;;;7.30;99.90;;;;;;4976983;28;20187;-80
2023/04/16 01:12:21;;;;;;;37.97;17.58;;;7.00;99.90;;;;;;4977202;28;20050;-80
2023/04/16 01:14:47;;;;;;;53.92;19.25;;;7.10;99.90;;;;;;4976818;28;20412;-80
2023/04/16 01:17:13;;;;;;;44.95;19.48;;;7.00;99.90;;;;;;4995081;28;20408;-79
2023/04/16 01:19:39;;;;;;;41.05;18.83;;;7.10;99.90;;;;;;4977081;28;20061;-79
2023/04/16 01:22:04;;;;;;;42.88;19.73;;;7.10;99.90;;;;;;4994219;28;20051;-78
2023/04/16 01:24:31;;;;;;;57.25;20.90;;;7.20;99.90;;;;;;4961025;28;20373;-77
2023/04/16 01:26:58;;;;;;;51.97;20.83;;;7.30;99.90;;;;;;4960796;28;20404;-80
2023/04/16 01:29:24;;;;;;;46.42;22.30;;;7.40;99.90;;;;;;4994250;28;20050;-79
2023/04/16 01:31:50;;;;;;;46.97;20.77;;;7.40;99.90;;;;;;4977231;28;20061;-79
2023/04/16 01:34:15;;;;;;;45.40;21.35;;;7.40;99.90;;;;;;4961512;28;20435;-80
2023/04/16 01:36:41;;;;;;;49.85;23.58;;;7.50;99.90;;;;;;4977020;28;20132;-79
2023/04/16 01:39:10;;;;;;;57.13;22.85;;;7.50;99.90;;;;;;4977667;28;20117;-79
2023/04/16 01:41:36;;;;;;;53.53;21.83;;;7.50;99.90;;;;;;4994006;28;20050;-79
2023/04/16 01:44:02;;;;;;;50.80;21.92;;;7.50;99.90;;;;;;4994095;28;20377;-79
2023/04/16 01:46:30;;;;;;;60.88;23.27;;;7.60;99.90;;;;;;4960405;28;20100;-80
2023/04/16 01:48:56;;;;;;;51.47;22.42;;;7.60;99.90;;;;;;4994071;28;20092;-79
2023/04/16 01:51:22;;;;;;;48.95;22.27;;;7.70;99.90;;;;;;4976556;28;20058;-78
2023/04/16 01:53:49;;;;;;;41.38;21.02;;;7.60;99.90;;;;;;4977028;28;20069;-79
2023/04/16 01:56:15;;;;;;;52.58;21.30;;;7.70;99.90;;;;;;4976921;28;20052;-78
2023/04/16 01:58:45;;;;;;;60.20;20.90;;;7.60;99.90;;;;;;4977054;28;20046;-78
2023/04/16 02:01:11;;;;;;;60.67;21.23;;;7.60;99.90;;;;;;4996383;28;20050;-79
2023/04/16 02:03:36;;;;;;;64.65;22.65;;;7.70;99.90;;;;;;4998558;28;20384;-80
2023/04/16 02:06:02;;;;;;;50.55;20.58;;;7.80;99.90;;;;;;4981327;28;20050;-80
2023/04/16 02:08:28;;;;;;;73.43;21.67;;;7.70;99.90;;;;;;4980214;28;20042;-80
2023/04/16 02:10:55;;;;;;;69.97;22.02;;;7.70;99.90;;;;;;4965063;28;20049;-79
2023/04/16 02:13:22;;;;;;;93.05;23.23;;;7.70;99.90;;;;;;4997294;28;20050;-78
2023/04/16 02:15:49;;;;;;;46.83;19.90;;;7.60;99.90;;;;;;4981277;28;20090;-79
2023/04/16 02:18:15;;;;;;;55.42;20.40;;;7.50;99.90;;;;;;4964334;28;20100;-79
2023/04/16 02:20:45;;;;;;;54.88;18.90;;;7.50;99.90;;;;;;4980659;28;20054;-80
2023/04/16 02:23:13;;;;;;;62.95;20.23;;;7.50;99.90;;;;;;4964175;28;20057;-80
2023/04/16 02:25:40;;;;;;;48.83;20.08;;;7.50;99.90;;;;;;4980002;28;20489;-80
2023/04/16 02:28:12;;;;;;;43.95;19.27;;;7.50;99.90;;;;;;4980196;28;20448;-80
2023/04/16 02:30:39;;;;;;;56.42;20.38;;;7.60;99.90;;;;;;4980136;28;20468;-80
2023/04/16 02:33:06;;;;;;;37.22;18.45;;;7.60;99.90;;;;;;4964235;28;20108;-80
2023/04/16 02:35:36;;;;;;;45.92;18.95;;;7.60;99.90;;;;;;4997167;28;20039;-79
2023/04/16 02:38:03;;;;;;;45.10;19.65;;;7.60;99.90;;;;;;4997980;28;20125;-79
2023/04/16 02:40:30;;;;;;;50.28;19.40;;;7.60;99.90;;;;;;4963779;28;20046;-79
2023/04/16 02:42:56;;;;;;;48.28;17.52;;;7.60;99.90;;;;;;4979587;28;20054;-79
2023/04/16 02:45:22;;;;;;;39.35;17.20;;;7.60;99.90;;;;;;4979814;28;20050;-79
2023/04/16 02:47:49;;;;;;;33.80;18.05;;;7.60;99.90;;;;;;4997039;28;20057;-79
2023/04/16 02:50:16;;;;;;;29.50;17.83;;;7.60;99.90;;;;;;4997435;28;20046;-80
2023/04/16 02:52:42;;;;;;;29.00;17.15;;;7.60;99.90;;;;;;4963822;28;20411;-80
2023/04/16 02:55:08;;;;;;;29.27;15.80;;;7.70;99.90;;;;;;4979196;28;20053;-79
2023/04/16 02:57:34;;;;;;;32.70;17.42;;;7.60;99.90;;;;;;4996896;28;20050;-79
2023/04/16 03:00:00;;;;;;;33.67;17.92;;;7.60;99.90;;;;;;4979324;28;20057;-79
2023/04/16 03:02:26;;;;;;;39.92;17.80;;;7.60;99.90;;;;;;4931984;28;20388;-79
2023/04/16 03:04:52;;;;;;;41.35;19.20;;;7.70;99.90;;;;;;4963686;28;20046;-79
2023/04/16 03:07:18;;;;;;;32.75;17.50;;;7.70;99.90;;;;;;4979494;28;20046;-80
2023/04/16 03:09:44;;;;;;;36.63;17.55;;;7.80;99.90;;;;;;4963630;28;20365;-80
2023/04/16 03:12:09;;;;;;;34.45;18.35;;;7.60;99.90;;;;;;4946749;28;20435;-79
2023/04/16 03:14:35;;;;;;;31.73;16.98;;;7.60;99.90;;;;;;4978963;28;20050;-79
2023/04/16 03:17:01;;;;;;;35.17;19.25;;;7.60;99.90;;;;;;4962998;28;20076;-79
2023/04/16 03:19:27;;;;;;;32.90;17.92;;;7.60;99.90;;;;;;4996398;28;20054;-79
2023/04/16 03:21:52;;;;;;;35.13;19.98;;;7.60;99.90;;;;;;4962857;28;20465;-80
2023/04/16 03:24:18;;;;;;;31.88;18.83;;;7.60;99.90;;;;;;4996622;28;20074;-80
2023/04/16 03:26:44;;;;;;;32.28;18.00;;;7.60;99.90;;;;;;4947121;28;20050;-79
2023/04/16 03:29:09;;;;;;;32.90;19.00;;;7.60;99.90;;;;;;4962834;28;20042;-78
2023/04/16 03:31:35;;;;;;;32.97;18.17;;;7.60;99.90;;;;;;4996225;28;20046;-78
2023/04/16 03:34:01;;;;;;;31.90;18.42;;;7.50;99.90;;;;;;4946878;28;20049;-78
2023/04/16 03:36:27;;;;;;;31.33;17.90;;;7.60;99.90;;;;;;4963214;28;20070;-78
2023/04/16 03:38:52;;;;;;;32.03;17.88;;;7.60;99.90;;;;;;4978839;28;20042;-78
2023/04/16 03:41:18;;;;;;;34.72;18.63;;;7.70;99.90;;;;;;4963523;28;20137;-78
2023/04/16 03:43:44;;;;;;;30.90;17.55;;;7.60;99.90;;;;;;4995845;28;20050;-79
2023/04/16 03:46:10;;;;;;;37.10;18.67;;;7.60;99.90;;;;;;4995975;28;20054;-78
2023/04/16 03:48:35;;;;;;;35.78;18.73;;;7.50;99.90;;;;;;4996196;28;20121;-79
2023/04/16 03:51:01;;;;;;;36.17;18.88;;;7.60;99.90;;;;;;4995850;28;20049;-79
2023/04/16 03:53:27;;;;;;;34.10;19.48;;;7.60;99.90;;;;;;4962609;28;20049;-79
2023/04/16 03:55:53;;;;;;;32.60;18.33;;;7.60;99.90;;;;;;4978759;28;20042;-79
2023/04/16 03:58:19;;;;;;;32.97;18.33;;;7.60;99.90;;;;;;4978427;28;20049;-79
2023/04/16 04:00:45;;;;;;;33.55;17.45;;;7.60;99.90;;;;;;4995662;28;20369;-79
2023/04/16 04:03:11;;;;;;;37.80;19.58;;;7.60;99.90;;;;;;4995603;28;20046;-79
2023/04/16 04:05:41;;;;;;;31.58;17.70;;;7.70;99.90;;;;;;4977953;28;20438;-78
2023/04/16 04:08:07;;;;;;;33.63;17.40;;;7.60;99.90;;;;;;4995524;28;20056;-78
2023/04/16 04:10:34;;;;;;;34.25;18.40;;;7.60;99.90;;;;;;4978141;28;20050;-78
2023/04/16 04:13:02;;;;;;;33.85;17.05;;;7.60;99.90;;;;;;4961762;28;20133;-79
2023/04/16 04:15:28;;;;;;;30.88;17.73;;;7.60;99.90;;;;;;4978003;28;20050;-78
2023/04/16 04:17:53;;;;;;;35.15;17.38;;;7.60;99.90;;;;;;4995599;28;20120;-78
2023/04/16 04:20:19;;;;;;;34.00;18.75;;;7.50;99.90;;;;;;4995264;28;20042;-78
2023/04/16 04:22:45;;;;;;;33.28;18.23;;;7.60;99.90;;;;;;4977268;28;20057;-78
2023/04/16 04:25:11;;;;;;;31.27;18.23;;;7.60;99.90;;;;;;4977303;28;20042;-78
2023/04/16 04:27:37;;;;;;;32.03;17.38;;;7.70;99.90;;;;;;4961886;28;20128;-78
2023/04/16 04:30:03;;;;;;;33.47;17.95;;;8.00;99.90;;;;;;4961826;28;20056;-77
2023/04/16 04:32:30;;;;;;;32.45;16.80;;;7.50;99.90;;;;;;4961758;28;20054;-77
2023/04/16 04:34:56;;;;;;;28.67;16.08;;;7.50;99.90;;;;;;4994908;28;20050;-77
2023/04/16 04:37:21;;;;;;;30.05;16.40;;;7.50;99.90;;;;;;4978622;28;20042;-78
2023/04/16 04:39:47;;;;;;;33.78;17.20;;;7.70;99.90;;;;;;4994899;28;20050;-78
2023/04/16 04:42:14;;;;;;;31.38;17.02;;;7.40;99.90;;;;;;4961223;28;20042;-78
2023/04/16 04:44:39;;;;;;;33.08;17.63;;;7.40;99.90;;;;;;4977904;28;20476;-78
2023/04/16 04:47:05;;;;;;;32.13;16.13;;;7.40;99.90;;;;;;4994697;28;20057;-77
2023/04/16 04:49:31;;;;;;;31.35;17.60;;;7.40;99.90;;;;;;4977323;28;20050;-78
2023/04/16 04:51:56;;;;;;;31.77;16.88;;;7.30;99.90;;;;;;4977323;28;20042;-78
2023/04/16 04:54:22;;;;;;;27.83;16.00;;;7.30;99.90;;;;;;4961997;28;20050;-77
2023/04/16 04:56:48;;;;;;;24.38;15.38;;;7.20;99.90;;;;;;4977406;28;20061;-77
2023/04/16 04:59:13;;;;;;;26.83;15.32;;;7.20;99.90;;;;;;4978435;28;20053;-79
2023/04/16 05:01:39;;;;;;;25.73;14.32;;;7.30;99.90;;;;;;4977531;28;20480;-79
2023/04/16 05:04:05;;;;;;;23.95;14.93;;;7.10;99.90;;;;;;4977401;28;20050;-78
2023/04/16 05:06:31;;;;;;;29.88;15.98;;;7.10;99.90;;;;;;4994916;28;20452;-78
2023/04/16 05:08:56;;;;;;;30.58;17.13;;;7.10;99.90;;;;;;4961158;28;20054;-78
2023/04/16 05:11:22;;;;;;;30.38;16.98;;;7.10;99.90;;;;;;4976885;28;20050;-77
2023/04/16 05:13:48;;;;;;;27.95;16.45;;;7.00;99.90;;;;;;4957534;28;20497;-77
2023/04/16 05:16:13;;;;;;;33.65;17.05;;;7.00;99.90;;;;;;4973911;28;20042;-77
2023/04/16 05:18:39;;;;;;;26.23;15.68;;;7.00;99.90;;;;;;4973868;28;20047;-78
2023/04/16 05:21:05;;;;;;;29.13;15.45;;;7.00;99.90;;;;;;4957482;28;20508;-78
2023/04/16 05:23:30;;;;;;;30.73;16.45;;;7.00;99.90;;;;;;4973337;28;20129;-78
2023/04/16 05:25:56;;;;;;;33.80;16.73;;;7.10;99.90;;;;;;4957985;28;20043;-78
2023/04/16 05:28:22;;;;;;;25.20;16.10;;;7.10;99.90;;;;;;4941774;28;20481;-79
2023/04/16 05:30:47;;;;;;;26.52;15.95;;;7.10;99.90;;;;;;4974950;28;20057;-78
2023/04/16 05:33:13;;;;;;;26.45;15.80;;;7.20;99.90;;;;;;4957372;28;20082;-78
2023/04/16 05:35:39;;;;;;;26.77;14.52;;;7.20;99.90;;;;;;4973126;28;20043;-79
2023/04/16 05:38:04;;;;;;;23.58;15.23;;;7.20;99.90;;;;;;4974625;28;20046;-78
2023/04/16 05:40:31;;;;;;;25.90;15.55;;;7.20;99.90;;;;;;4975111;28;20042;-79
2023/04/16 05:42:56;;;;;;;28.10;16.25;;;7.30;99.90;;;;;;4974485;28;20047;-79
2023/04/16 05:45:22;;;;;;;28.70;15.23;;;7.30;99.90;;;;;;4973872;28;20058;-79
2023/04/16 05:47:47;;;;;;;25.98;16.10;;;7.30;99.90;;;;;;4974603;28;20476;-79
2023/04/16 05:50:13;;;;;;;29.48;17.15;;;7.40;99.90;;;;;;4973492;28;20043;-79
2023/04/16 05:52:39;;;;;;;28.23;17.02;;;7.40;99.90;;;;;;4973577;28;20047;-79
2023/04/16 05:55:05;;;;;;;27.90;17.13;;;7.50;99.90;;;;;;4974468;28;20042;-80
2023/04/16 05:57:32;;;;;;;34.72;16.80;;;7.50;99.90;;;;;;4973881;28;20106;-79
2023/04/16 05:59:58;;;;;;;29.27;16.13;;;7.70;99.90;;;;;;4973459;28;20055;-79
2023/04/16 06:02:24;;;;;;;27.15;15.30;;;7.60;99.90;;;;;;4973289;28;20062;-78
2023/04/16 06:04:49;;;;;;;27.60;16.40;;;7.70;99.90;;;;;;4974169;28;20042;-78
2023/04/16 06:07:15;;;;;;;29.73;15.93;;;7.70;99.90;;;;;;4973170;28;20058;-78
2023/04/16 06:09:41;;;;;;;28.48;16.42;;;7.90;99.90;;;;;;4975173;28;20046;-78
2023/04/16 06:12:06;;;;;;;27.38;16.13;;;7.90;99.90;;;;;;4973076;28;20043;-78
2023/04/16 06:14:32;;;;;;;26.23;15.30;;;7.80;99.90;;;;;;4973021;28;20051;-78
2023/04/16 06:16:58;;;;;;;29.58;16.85;;;7.90;99.90;;;;;;4974509;28;20190;-78
2023/04/16 06:19:24;;;;;;;27.98;15.95;;;7.80;99.90;;;;;;4974241;28;20496;-78
2023/04/16 06:21:50;;;;;;;28.85;15.40;;;7.80;99.90;;;;;;4973281;28;20141;-78
2023/04/16 06:24:17;;;;;;;28.75;15.80;;;7.90;99.90;;;;;;4957109;28;20047;-78
2023/04/16 06:26:43;;;;;;;23.30;15.57;;;8.00;99.90;;;;;;4974264;28;20097;-78
2023/04/16 06:29:10;;;;;;;28.10;16.38;;;8.00;99.90;;;;;;4973222;28;20372;-78
2023/04/16 06:31:36;;;;;;;26.60;15.75;;;7.70;99.90;;;;;;4972974;28;20059;-79
2023/04/16 06:34:02;;;;;;;24.73;15.57;;;8.00;99.90;;;;;;4973320;28;20401;-79
2023/04/16 06:36:28;;;;;;;26.27;15.13;;;8.00;99.90;;;;;;4956772;28;20043;-78
2023/04/16 06:38:53;;;;;;;27.33;14.98;;;8.00;99.90;;;;;;4974691;28;20101;-78
2023/04/16 06:41:21;;;;;;;25.40;15.27;;;8.20;99.90;;;;;;4957046;28;20398;-79
2023/04/16 06:43:47;;;;;;;23.15;15.10;;;8.00;99.90;;;;;;4972784;28;20050;-78
2023/04/16 06:46:12;;;;;;;30.17;15.80;;;8.10;99.90;;;;;;4973280;28;20074;-78
2023/04/16 06:48:38;;;;;;;28.38;15.60;;;8.10;99.90;;;;;;4977496;28;20093;-78
2023/04/16 06:51:04;;;;;;;33.83;16.00;;;8.10;99.90;;;;;;4977185;28;20051;-78
2023/04/16 06:53:30;;;;;;;28.15;16.27;;;8.10;99.90;;;;;;4960199;28;20525;-78
2023/04/16 06:55:56;;;;;;;30.30;16.17;;;8.10;99.90;;;;;;4976721;28;20187;-78
2023/04/16 06:58:22;;;;;;;28.00;15.70;;;8.10;99.90;;;;;;4977314;28;20073;-78
2023/04/16 07:00:47;;;;;;;27.33;15.57;;;8.10;99.90;;;;;;4977289;28;20047;-77
2023/04/16 07:03:13;;;;;;;25.80;15.10;;;8.20;99.90;;;;;;4976796;28;20488;-77
2023/04/16 07:05:39;;;;;;;25.95;16.10;;;8.30;99.90;;;;;;4976562;28;20042;-78
2023/04/16 07:08:05;;;;;;;29.40;15.43;;;8.30;99.90;;;;;;4977125;28;20047;-79
2023/04/16 07:10:30;;;;;;;25.55;15.55;;;8.40;99.90;;;;;;4977117;28;20039;-79
2023/04/16 07:12:56;;;;;;;25.35;16.50;;;8.90;99.90;;;;;;4960021;28;20047;-78
2023/04/16 07:15:22;;;;;;;27.40;16.15;;;8.40;99.90;;;;;;4994998;28;20058;-79
2023/04/16 07:17:47;;;;;;;29.60;15.82;;;8.40;99.90;;;;;;4979143;28;20086;-79
2023/04/16 07:20:13;;;;;;;24.60;15.75;;;8.50;99.90;;;;;;4963160;28;20104;-79
2023/04/16 07:22:39;;;;;;;29.10;16.10;;;8.50;99.90;;;;;;4947334;28;20052;-79
2023/04/16 07:25:05;;;;;;;26.20;14.90;;;8.60;99.90;;;;;;4979907;28;20046;-79
2023/04/16 07:27:30;;;;;;;26.20;14.57;;;8.60;99.90;;;;;;4996765;28;20046;-79
2023/04/16 07:29:56;;;;;;;28.55;16.33;;;8.60;99.90;;;;;;4979779;28;20104;-79
2023/04/16 07:32:22;;;;;;;26.33;15.20;;;8.60;99.90;;;;;;4978873;28;20042;-79
2023/04/16 07:34:48;;;;;;;28.52;16.25;;;8.70;99.90;;;;;;4996227;28;20096;-79
2023/04/16 07:37:13;;;;;;;28.70;15.63;;;8.70;99.90;;;;;;4979191;28;20061;-79
2023/04/16 07:39:39;;;;;;;28.98;15.68;;;8.70;99.90;;;;;;4947208;28;20435;-79
2023/04/16 07:42:05;;;;;;;28.00;14.80;;;8.70;99.90;;;;;;4978829;28;20050;-79
2023/04/16 07:44:31;;;;;;;27.00;15.65;;;8.80;99.90;;;;;;4962639;28;20076;-81
2023/04/16 07:46:56;;;;;;;24.25;15.07;;;8.80;99.90;;;;;;4995998;28;20054;-78
2023/04/16 07:49:22;;;;;;;25.58;15.20;;;8.80;99.90;;;;;;4995925;28;20042;-78
2023/04/16 07:51:48;;;;;;;28.75;15.02;;;8.90;99.90;;;;;;4963426;28;20050;-79
2023/04/16 07:54:14;;;;;;;20.83;14.27;;;8.90;99.90;;;;;;4978811;28;20524;-79
2023/04/16 07:56:40;;;;;;;22.55;14.55;;;8.90;99.90;;;;;;4978810;28;20405;-80
2023/04/16 07:59:05;;;;;;;27.45;15.55;;;9.00;99.90;;;;;;4978473;28;20042;-79
2023/04/16 08:01:31;;;;;;;25.15;15.25;;;9.10;99.90;;;;;;4979376;28;20049;-79
2023/04/16 08:03:57;;;;;;;32.05;15.55;;;9.20;99.90;;;;;;4962350;28;20064;-78
2023/04/16 08:06:25;;;;;;;25.38;15.85;;;9.20;99.90;;;;;;4979842;28;20050;-79
2023/04/16 08:08:51;;;;;;;28.73;15.20;;;9.40;99.90;;;;;;4978153;28;20088;-79
2023/04/16 08:11:16;;;;;;;28.02;15.63;;;9.50;99.90;;;;;;4995096;28;20141;-79
2023/04/16 08:13:42;;;;;;;27.35;14.52;;;9.50;99.90;;;;;;4995173;28;20066;-80
2023/04/16 08:16:08;;;;;;;27.70;16.38;;;9.60;99.90;;;;;;4995462;28;20538;-79
2023/04/16 08:18:33;;;;;;;20.70;13.68;;;9.70;99.90;;;;;;4995671;28;20054;-79
2023/04/16 08:20:59;;;;;;;25.15;15.23;;;9.80;99.90;;;;;;4996054;28;20053;-79
2023/04/16 08:23:25;;;;;;;28.10;14.40;;;9.90;99.90;;;;;;4977923;28;20499;-80
2023/04/16 08:25:51;;;;;;;24.48;14.20;;;10.00;99.90;;;;;;4978562;28;20053;-82
2023/04/16 08:28:16;;;;;;;27.17;13.90;;;10.10;99.90;;;;;;4977864;28;20121;-81
2023/04/16 08:30:44;;;;;;;23.58;13.77;;;10.10;99.90;;;;;;4978622;28;20097;-81
2023/04/16 08:33:10;;;;;;;21.92;13.90;;;10.40;99.90;;;;;;4977691;28;20472;-80
2023/04/16 08:35:36;;;;;;;24.45;14.15;;;10.30;99.90;;;;;;4977654;28;20113;-81
2023/04/16 08:38:03;;;;;;;24.65;14.35;;;10.30;99.90;;;;;;4961688;28;20502;-81
2023/04/16 08:40:30;;;;;;;24.00;13.85;;;10.40;99.90;;;;;;4977838;28;20451;-81
2023/04/16 08:42:58;;;;;;;24.70;13.75;;;10.50;99.90;;;;;;4994889;28;20050;-80
2023/04/16 08:45:26;;;;;;;22.05;14.82;;;10.50;99.90;;;;;;4995101;28;20078;-81
2023/04/16 08:47:52;;;;;;;23.58;13.57;;;10.60;99.90;;;;;;4977729;28;20069;-80
2023/04/16 08:50:25;;;;;;;20.48;13.50;;;10.60;99.90;;;;;;4977648;28;20062;-79
2023/04/16 08:52:52;;;;;;;;;;;10.70;99.90;;;;;;4977928;28;20530;-81
2023/04/16 08:55:23;;;;;;;22.20;14.20;;;10.80;99.90;;;;;;4994960;28;19993;-81
2023/04/16 08:58:00;;;;;;;21.13;13.40;;;10.90;99.90;;;;;;4977838;28;20361;-79
2023/04/16 09:00:27;;;;;;;19.80;13.65;;;10.90;99.90;;;;;;4978077;28;20089;-81
2023/04/16 09:02:53;;;;;;;19.33;14.38;;;11.00;99.90;;;;;;4977165;28;20054;-81
2023/04/16 09:05:24;;;;;;;21.30;14.95;;;11.00;99.90;;;;;;4994455;28;20078;-82
2023/04/16 09:07:51;;;;;;;21.38;13.52;;;11.10;99.90;;;;;;4994553;28;20085;-81
2023/04/16 09:10:17;;;;;;;20.45;13.57;;;11.10;99.90;;;;;;4994299;28;20400;-82
2023/04/16 09:12:43;;;;;;;23.00;13.48;;;11.20;99.90;;;;;;4994286;28;20043;-83
2023/04/16 09:15:10;;;;;;;20.35;13.80;;;11.30;99.90;;;;;;4994967;28;20053;-84
2023/04/16 09:17:36;;;;;;;19.00;13.23;;;11.30;99.90;;;;;;4994967;28;20136;-82
2023/04/16 09:20:07;;;;;;;20.02;13.18;;;11.40;99.90;;;;;;4994501;28;20129;-82
2023/04/16 09:22:34;;;;;;;21.92;12.77;;;11.50;99.90;;;;;;4994330;28;20046;-83
2023/04/16 09:25:00;;;;;;;21.42;13.30;;;11.60;99.90;;;;;;4977231;28;20405;-81
2023/04/16 09:27:26;;;;;;;16.08;13.23;;;11.60;99.90;;;;;;4994773;28;20046;-81
2023/04/16 09:29:52;;;;;;;20.23;12.65;;;11.70;99.90;;;;;;4976958;28;20053;-82
2023/04/16 09:32:27;;;;;;;17.88;12.35;;;11.70;99.90;;;;;;4977592;28;20061;-81
2023/04/16 09:34:59;;;;;;;18.02;12.20;;;11.80;99.90;;;;;;4977714;28;20046;-81
2023/04/16 09:37:29;;;;;;;20.25;12.75;;;11.80;99.90;;;;;;4994601;28;20046;-82
2023/04/16 09:40:00;;;;;;;17.90;12.40;;;11.90;99.90;;;;;;4993659;28;20057;-80
2023/04/16 09:42:34;;;;;;;23.55;13.85;;;12.00;99.90;;;;;;4960746;28;20145;-81
2023/04/16 09:45:00;;;;;;;18.02;12.93;;;12.00;99.90;;;;;;4977145;28;20046;-83
2023/04/16 09:47:40;;;;;;;18.42;12.90;;;12.00;99.90;;;;;;4960570;28;20109;-81
2023/04/16 09:50:08;;;;;;;17.30;12.48;;;12.10;99.90;;;;;;4993693;28;20057;-81
2023/04/16 09:52:39;;;;;;;18.02;13.25;;;12.10;99.90;;;;;;4960397;28;20380;-81
2023/04/16 09:55:05;;;;;;;17.67;12.48;;;12.20;99.90;;;;;;4976967;28;20072;-80
2023/04/16 09:57:31;;;;;;;14.70;11.73;;;12.20;99.90;;;;;;4960445;28;20050;-79
2023/04/16 10:00:03;;;;;;;19.45;13.07;;;12.20;99.90;;;;;;4976338;28;20495;-79
2023/04/16 10:02:30;;;;;;;17.60;12.13;;;12.30;99.90;;;;;;4993472;28;20059;-78
2023/04/16 10:04:58;;;;;;;18.38;12.07;;;12.30;99.90;;;;;;4993497;28;20053;-81
2023/04/16 10:07:28;;;;;;;18.10;11.82;;;12.30;99.90;;;;;;4960953;28;20067;-80
2023/04/16 10:09:54;;;;;;;17.67;12.20;;;12.30;99.90;;;;;;4976557;28;20047;-80
2023/04/16 10:12:20;;;;;;;17.77;11.98;;;12.40;99.90;;;;;;4960984;28;20061;-80
2023/04/16 10:14:46;;;;;;;17.27;12.15;;;12.40;99.90;;;;;;4993398;28;20058;-80
2023/04/16 10:17:12;;;;;;;15.48;11.10;;;12.50;99.90;;;;;;4976921;28;20050;-81
2023/04/16 10:19:39;;;;;;;16.77;12.30;;;12.60;99.90;;;;;;4975925;28;20050;-79
2023/04/16 10:22:05;;;;;;;16.08;11.70;;;12.60;99.90;;;;;;4978093;28;20048;-78
2023/04/16 10:24:33;;;;;;;18.08;12.55;;;12.60;99.90;;;;;;4980178;28;20051;-79
2023/04/16 10:26:59;;;;;;;18.90;11.80;;;12.60;99.90;;;;;;4963896;28;20093;-78
2023/04/16 10:29:27;;;;;;;16.42;12.65;;;12.70;99.90;;;;;;4997836;28;20072;-78
2023/04/16 10:31:55;;;;;;;18.17;12.48;;;12.70;99.90;;;;;;4979538;28;20078;-78
2023/04/16 10:34:23;;;;;;;18.98;11.85;;;12.80;99.90;;;;;;4996841;28;20104;-78
2023/04/16 10:36:51;;;;;;;17.05;12.27;;;12.80;99.90;;;;;;4997653;28;20392;-79
2023/04/16 10:39:26;;;;;;;19.48;12.52;;;12.90;99.90;;;;;;4996801;28;20050;-79
2023/04/16 10:42:06;;;;;;;20.17;13.23;;;13.00;99.90;;;;;;4996800;28;20108;-79
2023/04/16 10:44:32;;;;;;;18.98;12.98;;;13.00;99.90;;;;;;4980295;28;20054;-79
2023/04/16 10:46:58;;;;;;;20.77;13.77;;;13.00;99.90;;;;;;4979261;28;20403;-78
2023/04/16 10:49:25;;;;;;;18.52;12.80;;;13.00;99.90;;;;;;4979291;28;20132;-79
2023/04/16 10:52:06;;;;;;;19.73;12.55;;;13.10;99.90;;;;;;4996638;28;20053;-81
2023/04/16 10:54:35;;;;;;;20.63;12.77;;;13.10;99.90;;;;;;4964056;28;20054;-79
2023/04/16 10:57:06;;;;;;;16.45;12.07;;;13.10;99.90;;;;;;4996773;28;20104;-80
2023/04/16 10:59:34;;;;;;;17.55;12.65;;;13.20;99.90;;;;;;4998132;28;20061;-80
2023/04/16 11:02:05;;;;;;;21.23;12.18;;;13.20;99.90;;;;;;4996694;28;20046;-81
2023/04/16 11:04:39;;;;;;;15.02;11.85;;;13.20;99.90;;;;;;4979146;28;20038;-81
2023/04/16 11:07:13;;;;;;;17.63;12.00;;;13.30;99.90;;;;;;4996524;28;20054;-83
2023/04/16 11:09:59;;;;;;;16.83;11.88;;;13.30;99.90;;;;;;4996177;28;20042;-84
2023/04/16 11:12:37;;;;;;;15.82;11.70;;;13.30;99.90;;;;;;4996550;28;20152;-81
2023/04/16 11:15:14;;;;;;;16.13;11.57;;;13.40;99.90;;;;;;4978694;28;20058;-81
2023/04/16 11:17:43;;;;;;;14.88;11.45;;;13.40;99.90;;;;;;4978775;28;20046;-83
2023/04/16 11:20:15;;;;;;;16.13;12.05;;;13.40;99.90;;;;;;4996054;28;20042;-82
2023/04/16 11:22:41;;;;;;;17.52;11.38;;;13.40;99.90;;;;;;4963306;28;20053;-81
2023/04/16 11:25:08;;;;;;;16.00;11.35;;;13.40;99.90;;;;;;4962004;28;20050;-83
2023/04/16 11:27:34;;;;;;;17.23;11.68;;;13.50;99.90;;;;;;4978657;28;20105;-80
2023/04/16 11:30:03;;;;;;;14.52;11.10;;;13.40;99.90;;;;;;4995799;28;20050;-82
2023/04/16 11:32:33;;;;;;;15.98;11.80;;;13.50;99.90;;;;;;4995479;28;20053;-83
2023/04/16 11:35:02;;;;;;;16.15;11.50;;;13.50;99.90;;;;;;4996309;28;20061;-82
2023/04/16 11:37:35;;;;;;;16.45;11.48;;;13.50;99.90;;;;;;4978444;28;20050;-79
2023/04/16 11:40:07;;;;;;;13.82;11.30;;;13.50;99.90;;;;;;4978394;28;20469;-82
2023/04/16 11:42:35;;;;;;;14.27;11.32;;;14.10;99.90;;;;;;4963404;28;20078;-82
2023/04/16 11:45:02;;;;;;;17.65;11.52;;;13.60;99.90;;;;;;4978490;28;20042;-81
2023/04/16 11:47:30;;;;;;;14.07;10.57;;;13.60;99.90;;;;;;4995538;28;20532;-82
2023/04/16 11:49:56;;;;;;;15.10;10.85;;;13.60;99.90;;;;;;4995577;28;20082;-80
2023/04/16 11:52:31;;;;;;;15.27;11.57;;;13.60;99.90;;;;;;4997798;28;20046;-82
2023/04/16 11:54:58;;;;;;;15.75;11.25;;;13.60;99.90;;;;;;4980500;28;20129;-80
2023/04/16 11:57:28;;;;;;;17.05;12.13;;;13.60;99.90;;;;;;4978261;28;20124;-82
2023/04/16 11:59:58;;;;;;;16.98;11.25;;;13.70;99.90;;;;;;4995443;28;20054;-83
2023/04/16 12:02:37;;;;;;;16.73;11.30;;;13.70;99.90;;;;;;4995654;28;20046;-81
2023/04/16 12:05:05;;;;;;;19.10;11.38;;;13.70;99.90;;;;;;4978378;28;20133;-80
2023/04/16 12:07:31;;;;;;;17.25;12.18;;;13.70;99.90;;;;;;4995172;28;20469;-82
2023/04/16 12:10:07;;;;;;;19.08;13.07;;;13.70;99.90;;;;;;4978128;28;20093;-80
2023/04/16 12:12:33;;;;;;;19.90;13.57;;;13.70;99.90;;;;;;4978234;28;20061;-83
2023/04/16 12:15:02;;;;;;;23.38;13.93;;;13.70;99.90;;;;;;4977270;28;20059;-83
2023/04/16 12:17:29;;;;;;;20.23;12.68;;;13.60;99.90;;;;;;4995329;28;20046;-81
2023/04/16 12:19:57;;;;;;;19.10;14.13;;;13.70;99.90;;;;;;4961829;28;20473;-83
2023/04/16 12:22:33;;;;;;;18.50;13.02;;;13.70;99.90;;;;;;4977775;28;20046;-84
2023/04/16 12:25:10;;;;;;;18.27;14.55;;;13.70;99.90;;;;;;4995759;28;20086;-81
2023/04/16 12:27:50;;;;;;;21.33;14.18;;;13.70;99.90;;;;;;4978523;28;20046;-85
2023/04/16 12:30:21;;;;;;;17.83;13.93;;;13.70;99.90;;;;;;4962050;28;20353;-83
2023/04/16 12:32:50;;;;;;;19.27;13.57;;;13.70;99.90;;;;;;4977736;28;20054;-81